<?xml version="1.0" encoding="UTF-8" standalone="no" ?>
<gpx xmlns="http://www.topografix.com/GPX/1/1" xmlns:xsi="http://www.w3.org/2001/XMLSchema-instance" xsi:schemaLocation="http://www.topografix.com/GPX/1/1 http://www.topografix.com/GPX/1/1/gpx.xsd" version="1.1" creator="VisuGPX - https://www.visugpx.com">
  <metadata>
    <name>LeFuilet_potiers25km</name>
    <desc><![CDATA[gnerando idor:8158469]]></desc>
  </metadata>
  <trk>
    <name><![CDATA[LeFuilet_Potiers_24.8km-8158469]]></name>
    <extensions>
      <line xmlns="http://www.topografix.com/GPX/gpx_style/0/2">
        <color>0000FF</color>
        <width>4</width>
      </line>
    </extensions>
    <trkseg>
      <trkpt lat="47.26313" lon="-1.13888">
        <ele>98</ele>
        <time>2023-11-04T15:32:35Z</time>
      </trkpt>
      <trkpt lat="47.26464" lon="-1.14043">
        <ele>95</ele>
        <time>2023-11-04T15:36:41Z</time>
      </trkpt>
      <trkpt lat="47.26612" lon="-1.14094">
        <ele>98</ele>
        <time>2023-11-04T15:40:03Z</time>
      </trkpt>
      <trkpt lat="47.26729" lon="-1.13957">
        <ele>100</ele>
        <time>2023-11-04T15:43:23Z</time>
      </trkpt>
      <trkpt lat="47.26749" lon="-1.14142">
        <ele>103</ele>
        <time>2023-11-04T15:46:12Z</time>
      </trkpt>
      <trkpt lat="47.26793" lon="-1.14223">
        <ele>104</ele>
        <time>2023-11-04T15:47:46Z</time>
      </trkpt>
      <trkpt lat="47.26921" lon="-1.14391">
        <ele>104</ele>
        <time>2023-11-04T15:51:35Z</time>
      </trkpt>
      <trkpt lat="47.26985" lon="-1.14463">
        <ele>104</ele>
        <time>2023-11-04T15:53:23Z</time>
      </trkpt>
      <trkpt lat="47.2711" lon="-1.1479">
        <ele>106</ele>
        <time>2023-11-04T15:59:02Z</time>
      </trkpt>
      <trkpt lat="47.27189" lon="-1.14674">
        <ele>104</ele>
        <time>2023-11-04T16:01:31Z</time>
      </trkpt>
      <trkpt lat="47.27556" lon="-1.14476">
        <ele>101</ele>
        <time>2023-11-04T16:10:13Z</time>
      </trkpt>
      <trkpt lat="47.2764" lon="-1.14322">
        <ele>101</ele>
        <time>2023-11-04T16:13:12Z</time>
      </trkpt>
      <trkpt lat="47.2787" lon="-1.14013">
        <ele>96</ele>
        <time>2023-11-04T16:20:07Z</time>
      </trkpt>
      <trkpt lat="47.28234" lon="-1.14009">
        <ele>90</ele>
        <time>2023-11-04T16:28:13Z</time>
      </trkpt>
      <trkpt lat="47.28482" lon="-1.13708">
        <ele>96</ele>
        <time>2023-11-04T16:35:21Z</time>
      </trkpt>
      <trkpt lat="47.28552" lon="-1.13506">
        <ele>98</ele>
        <time>2023-11-04T16:38:47Z</time>
      </trkpt>
      <trkpt lat="47.28651" lon="-1.13408">
        <ele>99</ele>
        <time>2023-11-04T16:41:26Z</time>
      </trkpt>
      <trkpt lat="47.2849" lon="-1.13339">
        <ele>103</ele>
        <time>2023-11-04T16:45:10Z</time>
      </trkpt>
      <trkpt lat="47.28741" lon="-1.1276">
        <ele>95</ele>
        <time>2023-11-04T16:55:32Z</time>
      </trkpt>
      <trkpt lat="47.28959" lon="-1.12768">
        <ele>90</ele>
        <time>2023-11-04T17:00:23Z</time>
      </trkpt>
      <trkpt lat="47.29081" lon="-1.12816">
        <ele>94</ele>
        <time>2023-11-04T17:03:11Z</time>
      </trkpt>
      <trkpt lat="47.29183" lon="-1.12751">
        <ele>94</ele>
        <time>2023-11-04T17:05:39Z</time>
      </trkpt>
      <trkpt lat="47.29201" lon="-1.12627">
        <ele>93</ele>
        <time>2023-11-04T17:07:34Z</time>
      </trkpt>
      <trkpt lat="47.29329" lon="-1.12374">
        <ele>93</ele>
        <time>2023-11-04T17:12:20Z</time>
      </trkpt>
      <trkpt lat="47.2918" lon="-1.11983">
        <ele>77</ele>
        <time>2023-11-04T17:19:06Z</time>
      </trkpt>
      <trkpt lat="47.29273" lon="-1.11751">
        <ele>76</ele>
        <time>2023-11-04T17:23:10Z</time>
      </trkpt>
      <trkpt lat="47.29174" lon="-1.11665">
        <ele>80</ele>
        <time>2023-11-04T17:25:43Z</time>
      </trkpt>
      <trkpt lat="47.28962" lon="-1.11472">
        <ele>94</ele>
        <time>2023-11-04T17:31:16Z</time>
      </trkpt>
      <trkpt lat="47.28846" lon="-1.11382">
        <ele>97</ele>
        <time>2023-11-04T17:34:11Z</time>
      </trkpt>
      <trkpt lat="47.28569" lon="-1.10957">
        <ele>90</ele>
        <time>2023-11-04T17:43:04Z</time>
      </trkpt>
      <trkpt lat="47.28458" lon="-1.10781">
        <ele>90</ele>
        <time>2023-11-04T17:46:42Z</time>
      </trkpt>
      <trkpt lat="47.28313" lon="-1.09859">
        <ele>51</ele>
        <time>2023-11-04T18:00:58Z</time>
      </trkpt>
      <trkpt lat="47.2824" lon="-1.0982">
        <ele>50</ele>
        <time>2023-11-04T18:02:42Z</time>
      </trkpt>
      <trkpt lat="47.28179" lon="-1.09597">
        <ele>66</ele>
        <time>2023-11-04T18:06:20Z</time>
      </trkpt>
      <trkpt lat="47.28217" lon="-1.09438">
        <ele>72</ele>
        <time>2023-11-04T18:08:52Z</time>
      </trkpt>
      <trkpt lat="47.28217" lon="-1.09198">
        <ele>78</ele>
        <time>2023-11-04T18:12:30Z</time>
      </trkpt>
      <trkpt lat="47.28156" lon="-1.09185">
        <ele>78</ele>
        <time>2023-11-04T18:13:52Z</time>
      </trkpt>
      <trkpt lat="47.2801" lon="-1.0882">
        <ele>88</ele>
        <time>2023-11-04T18:20:15Z</time>
      </trkpt>
      <trkpt lat="47.28103" lon="-1.08794">
        <ele>87</ele>
        <time>2023-11-04T18:22:22Z</time>
      </trkpt>
      <trkpt lat="47.28156" lon="-1.0882">
        <ele>85</ele>
        <time>2023-11-04T18:23:36Z</time>
      </trkpt>
      <trkpt lat="47.28438" lon="-1.08558">
        <ele>77</ele>
        <time>2023-11-04T18:31:01Z</time>
      </trkpt>
      <trkpt lat="47.28493" lon="-1.08404">
        <ele>79</ele>
        <time>2023-11-04T18:33:39Z</time>
      </trkpt>
      <trkpt lat="47.28685" lon="-1.0858">
        <ele>75</ele>
        <time>2023-11-04T18:38:40Z</time>
      </trkpt>
      <trkpt lat="47.29009" lon="-1.08627">
        <ele>63</ele>
        <time>2023-11-04T18:45:55Z</time>
      </trkpt>
      <trkpt lat="47.29195" lon="-1.08524">
        <ele>40</ele>
        <time>2023-11-04T18:50:20Z</time>
      </trkpt>
      <trkpt lat="47.29227" lon="-1.08786">
        <ele>41</ele>
        <time>2023-11-04T18:54:21Z</time>
      </trkpt>
      <trkpt lat="47.2957" lon="-1.08786">
        <ele>66</ele>
        <time>2023-11-04T19:01:59Z</time>
      </trkpt>
      <trkpt lat="47.29669" lon="-1.08824">
        <ele>73</ele>
        <time>2023-11-04T19:04:15Z</time>
      </trkpt>
      <trkpt lat="47.30051" lon="-1.08773">
        <ele>75</ele>
        <time>2023-11-04T19:12:47Z</time>
      </trkpt>
      <trkpt lat="47.29998" lon="-1.08125">
        <ele>75</ele>
        <time>2023-11-04T19:22:38Z</time>
      </trkpt>
      <trkpt lat="47.29931" lon="-1.08">
        <ele>72</ele>
        <time>2023-11-04T19:25:02Z</time>
      </trkpt>
      <trkpt lat="47.29943" lon="-1.07734">
        <ele>73</ele>
        <time>2023-11-04T19:29:03Z</time>
      </trkpt>
      <trkpt lat="47.30211" lon="-1.0779">
        <ele>78</ele>
        <time>2023-11-04T19:35:04Z</time>
      </trkpt>
      <trkpt lat="47.3031" lon="-1.07734">
        <ele>77</ele>
        <time>2023-11-04T19:37:26Z</time>
      </trkpt>
      <trkpt lat="47.30538" lon="-1.0764">
        <ele>76</ele>
        <time>2023-11-04T19:42:42Z</time>
      </trkpt>
      <trkpt lat="47.30538" lon="-1.07464">
        <ele>63</ele>
        <time>2023-11-04T19:45:21Z</time>
      </trkpt>
      <trkpt lat="47.30436" lon="-1.07376">
        <ele>56</ele>
        <time>2023-11-04T19:47:59Z</time>
      </trkpt>
      <trkpt lat="47.30353" lon="-1.07367">
        <ele>47</ele>
        <time>2023-11-04T19:49:50Z</time>
      </trkpt>
      <trkpt lat="47.30362" lon="-1.07297">
        <ele>48</ele>
        <time>2023-11-04T19:50:54Z</time>
      </trkpt>
      <trkpt lat="47.30471" lon="-1.0729">
        <ele>70</ele>
        <time>2023-11-04T19:53:20Z</time>
      </trkpt>
      <trkpt lat="47.30496" lon="-1.07144">
        <ele>75</ele>
        <time>2023-11-04T19:55:36Z</time>
      </trkpt>
      <trkpt lat="47.3079" lon="-1.07224">
        <ele>84</ele>
        <time>2023-11-04T20:02:15Z</time>
      </trkpt>
      <trkpt lat="47.30999" lon="-1.07202">
        <ele>89</ele>
        <time>2023-11-04T20:06:55Z</time>
      </trkpt>
      <trkpt lat="47.31066" lon="-1.07039">
        <ele>86</ele>
        <time>2023-11-04T20:09:47Z</time>
      </trkpt>
      <trkpt lat="47.31151" lon="-1.06962">
        <ele>87</ele>
        <time>2023-11-04T20:12:00Z</time>
      </trkpt>
      <trkpt lat="47.31212" lon="-1.07001">
        <ele>89</ele>
        <time>2023-11-04T20:13:29Z</time>
      </trkpt>
      <trkpt lat="47.31465" lon="-1.07777">
        <ele>96</ele>
        <time>2023-11-04T20:26:28Z</time>
      </trkpt>
      <trkpt lat="47.31476" lon="-1.08061">
        <ele>97</ele>
        <time>2023-11-04T20:30:45Z</time>
      </trkpt>
      <trkpt lat="47.31572" lon="-1.08206">
        <ele>99</ele>
        <time>2023-11-04T20:33:49Z</time>
      </trkpt>
      <trkpt lat="47.3157" lon="-1.08464">
        <ele>106</ele>
        <time>2023-11-04T20:37:42Z</time>
      </trkpt>
      <trkpt lat="47.31942" lon="-1.08348">
        <ele>98</ele>
        <time>2023-11-04T20:46:10Z</time>
      </trkpt>
      <trkpt lat="47.31962" lon="-1.08262">
        <ele>98</ele>
        <time>2023-11-04T20:47:32Z</time>
      </trkpt>
      <trkpt lat="47.32146" lon="-1.08005">
        <ele>92</ele>
        <time>2023-11-04T20:53:10Z</time>
      </trkpt>
      <trkpt lat="47.32244" lon="-1.0776">
        <ele>82</ele>
        <time>2023-11-04T20:57:27Z</time>
      </trkpt>
      <trkpt lat="47.32352" lon="-1.07344">
        <ele>90</ele>
        <time>2023-11-04T21:04:10Z</time>
      </trkpt>
      <trkpt lat="47.32591" lon="-1.06992">
        <ele>93</ele>
        <time>2023-11-04T21:11:41Z</time>
      </trkpt>
      <trkpt lat="47.32983" lon="-1.06589">
        <ele>95</ele>
        <time>2023-11-04T21:22:18Z</time>
      </trkpt>
      <trkpt lat="47.33135" lon="-1.06391">
        <ele>92</ele>
        <time>2023-11-04T21:26:49Z</time>
      </trkpt>
      <trkpt lat="47.3321" lon="-1.06408">
        <ele>88</ele>
        <time>2023-11-04T21:28:30Z</time>
      </trkpt>
      <trkpt lat="47.33324" lon="-1.06262">
        <ele>85</ele>
        <time>2023-11-04T21:31:52Z</time>
      </trkpt>
      <trkpt lat="47.33507" lon="-1.06159">
        <ele>81</ele>
        <time>2023-11-04T21:36:13Z</time>
      </trkpt>
      <trkpt lat="47.33507" lon="-1.06112">
        <ele>83</ele>
        <time>2023-11-04T21:36:56Z</time>
      </trkpt>
      <trkpt lat="47.33638" lon="-1.06056">
        <ele>76</ele>
        <time>2023-11-04T21:39:58Z</time>
      </trkpt>
      <trkpt lat="47.33612" lon="-1.05846">
        <ele>77</ele>
        <time>2023-11-04T21:43:11Z</time>
      </trkpt>
      <trkpt lat="47.33815" lon="-1.05829">
        <ele>67</ele>
        <time>2023-11-04T21:47:42Z</time>
      </trkpt>
      <trkpt lat="47.33966" lon="-1.05786">
        <ele>58</ele>
        <time>2023-11-04T21:51:07Z</time>
      </trkpt>
      <trkpt lat="47.34161" lon="-1.0576">
        <ele>44</ele>
        <time>2023-11-04T21:55:29Z</time>
      </trkpt>
      <trkpt lat="47.34327" lon="-1.0573">
        <ele>36</ele>
        <time>2023-11-04T21:59:12Z</time>
      </trkpt>
      <trkpt lat="47.34333" lon="-1.05872">
        <ele>37</ele>
        <time>2023-11-04T22:01:20Z</time>
      </trkpt>
      <trkpt lat="47.34423" lon="-1.06095">
        <ele>35</ele>
        <time>2023-11-04T22:05:15Z</time>
      </trkpt>
      <trkpt lat="47.34432" lon="-1.06215">
        <ele>36</ele>
        <time>2023-11-04T22:07:04Z</time>
      </trkpt>
      <trkpt lat="47.34548" lon="-1.06378">
        <ele>34</ele>
        <time>2023-11-04T22:10:38Z</time>
      </trkpt>
      <trkpt lat="47.3497" lon="-1.06357">
        <ele>30</ele>
        <time>2023-11-04T22:20:01Z</time>
      </trkpt>
      <trkpt lat="47.3526" lon="-1.05473">
        <ele>28</ele>
        <time>2023-11-04T22:34:49Z</time>
      </trkpt>
      <trkpt lat="47.35185" lon="-1.05533">
        <ele>29</ele>
        <time>2023-11-04T22:36:43Z</time>
      </trkpt>
      <trkpt lat="47.3515" lon="-1.05408">
        <ele>29</ele>
        <time>2023-11-04T22:38:46Z</time>
      </trkpt>
      <trkpt lat="47.35182" lon="-1.05104">
        <ele>27</ele>
        <time>2023-11-04T22:43:24Z</time>
      </trkpt>
      <trkpt lat="47.35292" lon="-1.05022">
        <ele>26</ele>
        <time>2023-11-04T22:46:08Z</time>
      </trkpt>
      <trkpt lat="47.35278" lon="-1.04915">
        <ele>24</ele>
        <time>2023-11-04T22:47:47Z</time>
      </trkpt>
      <trkpt lat="47.35208" lon="-1.04438">
        <ele>17</ele>
        <time>2023-11-04T22:55:08Z</time>
      </trkpt>
      <trkpt lat="47.35412" lon="-1.04353">
        <ele>13</ele>
        <time>2023-11-04T22:59:51Z</time>
      </trkpt>
      <trkpt lat="47.35653" lon="-1.03975">
        <ele>10</ele>
        <time>2023-11-04T23:07:40Z</time>
      </trkpt>
      <trkpt lat="47.35862" lon="-1.03769">
        <ele>10</ele>
        <time>2023-11-04T23:13:15Z</time>
      </trkpt>
      <trkpt lat="47.36045" lon="-1.03722">
        <ele>11</ele>
        <time>2023-11-04T23:17:23Z</time>
      </trkpt>
      <trkpt lat="47.36101" lon="-1.03529">
        <ele>12</ele>
        <time>2023-11-04T23:20:33Z</time>
      </trkpt>
      <trkpt lat="47.36202" lon="-1.03387">
        <ele>13</ele>
        <time>2023-11-04T23:23:39Z</time>
      </trkpt>
      <trkpt lat="47.36263" lon="-1.03117">
        <ele>15</ele>
        <time>2023-11-04T23:27:56Z</time>
      </trkpt>
      <trkpt lat="47.36301" lon="-1.03155">
        <ele>12</ele>
        <time>2023-11-04T23:28:58Z</time>
      </trkpt>
      <trkpt lat="47.36339" lon="-1.03001">
        <ele>14</ele>
        <time>2023-11-04T23:31:26Z</time>
      </trkpt>
      <trkpt lat="47.36397" lon="-1.02911">
        <ele>12</ele>
        <time>2023-11-04T23:33:18Z</time>
      </trkpt>
      <trkpt lat="47.36385" lon="-1.02615">
        <ele>22</ele>
        <time>2023-11-04T23:37:46Z</time>
      </trkpt>
      <trkpt lat="47.36461" lon="-1.01919">
        <ele>28</ele>
        <time>2023-11-04T23:48:23Z</time>
      </trkpt>
    </trkseg>
  </trk>
</gpx>